Terminal Aerodrome Forecast
Issued by NWS Wilmington, OH

Current Version | Previous Version | Text Only | Print | Product List | Glossary Off
Versions: 1 2 3 4 5 6 7 8 9 10 11 12 13 14 15 16 17 18 19 20 21 22 23 24 25 26 27 28 29 30

000
FTUS41 KILN 211739
TAFCVG
TAF
KCVG 211739Z 2118/2224 20008KT P6SM SCT040 SCT200
     FM212200 25006KT P6SM BKN045
     FM220100 VRB03KT P6SM SCT045 BKN200
     FM221400 23010G18KT P6SM SCT045=

USA.gov is the U.S. government's official web portal to all federal, state and local government web resources and services.